createdAt,value
2024-05-09T00:00:56.976Z,13.00
2024-05-09T00:04:15.916Z,13.00
2024-05-09T00:11:20.540Z,12.90
2024-05-09T00:19:00.776Z,12.70
2024-05-09T00:21:47.421Z,12.60
2024-05-09T00:24:42.638Z,12.60
2024-05-09T00:27:56.450Z,12.50
2024-05-09T00:42:27.306Z,12.20
2024-05-09T00:45:21.445Z,12.10
2024-05-09T00:48:26.049Z,12.10
2024-05-09T00:51:04.685Z,12.00
2024-05-09T01:10:38.102Z,11.60
2024-05-09T01:13:50.686Z,11.60
2024-05-09T01:16:35.939Z,11.60
2024-05-09T01:28:23.291Z,11.40
2024-05-09T01:52:56.525Z,11.00
2024-05-09T01:55:35.945Z,11.00
2024-05-09T01:58:26.745Z,10.90
2024-05-09T02:01:05.850Z,10.80
2024-05-09T02:03:52.642Z,10.80
2024-05-09T02:06:44.943Z,10.80
2024-05-09T02:09:28.133Z,10.70
2024-05-09T02:12:08.399Z,10.70
2024-05-09T02:14:40.533Z,10.60
2024-05-09T02:17:37.454Z,10.60
2024-05-09T02:24:51.541Z,10.50
2024-05-09T02:27:59.601Z,10.40
2024-05-09T02:30:43.982Z,10.30
2024-05-09T02:33:18.105Z,10.30
2024-05-09T02:36:14.809Z,10.20
2024-05-09T02:38:57.211Z,10.20
2024-05-09T02:41:57.372Z,10.10
2024-05-09T02:44:38.333Z,10.00
2024-05-09T02:47:21.503Z,10.00
2024-05-09T02:50:08.145Z,10.00
2024-05-09T02:52:55.647Z,9.90
2024-05-09T02:55:29.112Z,9.90
2024-05-09T02:58:27.909Z,9.80
2024-05-09T03:01:13.360Z,9.80
2024-05-09T03:08:50.742Z,9.70
2024-05-09T03:11:34.123Z,9.70
2024-05-09T03:14:27.578Z,9.60
2024-05-09T03:17:12.742Z,9.50
2024-05-09T03:20:37.732Z,9.50
2024-05-09T03:31:28.104Z,9.50
2024-05-09T03:39:00.692Z,9.40
2024-05-09T03:42:00.121Z,9.50
2024-05-09T03:45:00.724Z,9.40
2024-05-09T03:47:42.794Z,9.40
2024-05-09T03:50:37.254Z,9.40
2024-05-09T04:02:44.081Z,9.40
2024-05-09T04:06:02.071Z,9.40
2024-05-09T04:12:32.200Z,9.50
2024-05-09T04:14:59.964Z,9.50
2024-05-09T04:17:33.096Z,9.60
2024-05-09T04:20:00.958Z,9.60
2024-05-09T04:22:31.685Z,9.60
2024-05-09T04:25:02.247Z,9.70
2024-05-09T04:27:35.171Z,9.70
2024-05-09T04:33:08.636Z,9.80
2024-05-09T04:35:59.552Z,9.80
2024-05-09T04:47:08.094Z,10.00
2024-05-09T04:51:08.977Z,10.10
2024-05-09T05:22:33.083Z,10.70
2024-05-09T05:25:00.620Z,10.70
2024-05-09T05:27:33.746Z,10.80
2024-05-09T05:30:07.466Z,10.80
2024-05-09T05:32:41.812Z,10.90
2024-05-09T05:35:11.856Z,10.90
2024-05-09T05:37:44.666Z,11.00
2024-05-09T05:40:25.289Z,11.00
2024-05-09T05:43:00.478Z,11.10
2024-05-09T05:48:28.354Z,11.20
2024-05-09T05:51:01.930Z,11.30
2024-05-09T05:53:40.518Z,11.30
2024-05-09T05:56:08.140Z,11.30
2024-05-09T05:58:38.719Z,11.40
2024-05-09T08:59:30.468Z,15.00
2024-05-09T09:01:59.222Z,15.10
2024-05-09T09:07:34.713Z,15.20
2024-05-09T09:10:05.577Z,15.20
2024-05-09T09:12:36.590Z,15.30
2024-05-09T09:15:07.232Z,15.30
2024-05-09T09:17:37.411Z,15.40
2024-05-09T09:20:09.047Z,15.40
2024-05-09T09:22:42.076Z,15.50
2024-05-09T09:25:09.651Z,15.50
2024-05-09T09:27:39.729Z,15.60
2024-05-09T09:30:22.486Z,15.60
2024-05-09T09:33:01.102Z,15.70
2024-05-09T09:35:29.233Z,15.80
2024-05-09T09:38:04.442Z,15.80
2024-05-09T09:40:37.205Z,15.90
2024-05-09T09:46:21.431Z,15.90
2024-05-09T09:48:53.682Z,16.00
2024-05-09T09:51:25.249Z,16.00
2024-05-09T09:53:55.503Z,16.10
2024-05-09T09:56:26.707Z,16.10
2024-05-09T10:01:52.520Z,16.30
2024-05-09T10:04:20.586Z,16.40
2024-05-09T10:06:53.971Z,16.40
2024-05-09T10:09:24.801Z,16.40
2024-05-09T10:12:00.136Z,16.40
2024-05-09T10:14:31.060Z,16.50
2024-05-09T10:17:09.737Z,16.50
2024-05-09T10:19:41.466Z,16.50
2024-05-09T10:22:11.753Z,16.60
2024-05-09T10:27:39.832Z,16.70
2024-05-09T10:30:14.395Z,16.80
2024-05-09T10:32:50.603Z,16.80
2024-05-09T10:35:19.684Z,16.90
2024-05-09T10:37:51.314Z,16.90
2024-05-09T10:40:26.023Z,17.00
2024-05-09T10:46:01.274Z,17.20
2024-05-09T10:48:32.360Z,17.30
2024-05-09T10:51:03.689Z,17.30
2024-05-09T10:53:31.281Z,17.40
2024-05-09T10:56:01.670Z,17.50
2024-05-09T11:01:33.573Z,17.60
2024-05-09T11:04:04.265Z,17.70
2024-05-09T11:06:38.666Z,17.80
2024-05-09T11:09:06.636Z,17.80
2024-05-09T11:11:37.073Z,17.80
2024-05-09T11:14:12.356Z,17.90
2024-05-09T11:16:42.532Z,18.00
2024-05-09T11:19:15.103Z,18.00
2024-05-09T11:21:46.292Z,18.10
2024-05-09T11:24:14.558Z,18.20
2024-05-09T11:26:46.132Z,18.20
2024-05-09T11:29:15.667Z,18.30
2024-05-09T11:31:49.595Z,18.40
2024-05-09T11:34:19.959Z,18.50
2024-05-09T11:39:41.275Z,18.90
2024-05-09T11:42:11.535Z,19.00
2024-05-09T11:44:39.068Z,19.00
2024-05-09T11:47:09.814Z,19.20
2024-05-09T11:52:41.011Z,19.30
2024-05-09T11:55:08.546Z,19.50
2024-05-09T12:00:36.802Z,19.70
2024-05-09T12:06:09.466Z,19.90
2024-05-09T12:08:44.548Z,20.00
2024-05-09T12:11:14.585Z,20.00
2024-05-09T12:13:44.582Z,20.10
2024-05-09T12:16:12.650Z,20.20
2024-05-09T12:18:43.098Z,20.40
2024-05-09T12:21:10.647Z,20.50
2024-05-09T12:26:45.731Z,20.80
2024-05-09T12:29:13.218Z,20.90
2024-05-09T12:31:44.177Z,21.10
2024-05-09T12:34:12.634Z,21.20
2024-05-09T12:36:43.006Z,21.30
2024-05-09T12:41:57.322Z,21.60
2024-05-09T12:47:22.608Z,21.70
2024-05-09T12:49:50.158Z,21.70
2024-05-09T12:52:20.231Z,21.80
2024-05-09T12:54:54.931Z,21.80
2024-05-09T12:57:28.161Z,21.90
2024-05-09T12:59:56.566Z,22.00
2024-05-09T13:02:26.760Z,22.10
2024-05-09T13:04:54.373Z,22.10
2024-05-09T13:07:25.571Z,22.20
2024-05-09T13:09:53.124Z,22.30
2024-05-09T13:12:24.323Z,22.40
2024-05-09T13:14:54.482Z,22.40
2024-05-09T13:17:25.038Z,22.60
2024-05-09T13:20:26.053Z,22.60
2024-05-09T13:23:07.679Z,22.80
2024-05-09T13:25:39.412Z,23.00
2024-05-09T13:28:13.599Z,23.10
2024-05-09T13:30:43.899Z,23.30
2024-05-09T13:33:14.761Z,23.40
2024-05-09T13:35:47.417Z,23.50
2024-05-09T13:41:11.728Z,23.80
2024-05-09T13:46:33.628Z,24.10
2024-05-09T13:52:01.598Z,24.50
2024-05-09T14:00:44.643Z,25.10
2024-05-09T14:06:16.156Z,25.50
2024-05-09T14:08:43.944Z,25.70
2024-05-09T14:11:14.001Z,25.90
2024-05-09T14:25:59.308Z,27.20
2024-05-09T14:33:28.278Z,27.80
2024-05-09T14:39:35.692Z,28.50
2024-05-09T14:50:06.927Z,29.40
2024-05-09T16:04:52.457Z,34.50
2024-05-09T16:14:59.079Z,34.30
2024-05-09T16:21:34.597Z,34.00
2024-05-09T16:32:19.831Z,33.20
2024-05-09T16:35:00.328Z,32.60
2024-05-09T16:40:41.491Z,31.30
2024-05-09T16:44:16.891Z,30.60
2024-05-09T16:51:08.568Z,29.40
2024-05-09T17:05:50.904Z,26.90
2024-05-09T17:11:17.802Z,26.00
2024-05-09T18:23:00.810Z,21.50
2024-05-09T18:25:28.597Z,21.40
2024-05-09T19:31:44.216Z,19.00
2024-05-09T19:34:11.761Z,18.80
2024-05-09T19:36:41.915Z,18.70
2024-05-09T19:39:12.532Z,18.70
2024-05-09T20:28:58.814Z,17.30
2024-05-09T20:36:31.746Z,17.20
2024-05-09T21:10:34.779Z,16.40
2024-05-09T21:13:14.898Z,16.40
2024-05-09T21:16:10.520Z,16.30
2024-05-09T21:22:02.835Z,16.10
2024-05-09T21:24:46.515Z,16.00
2024-05-09T21:27:25.502Z,16.00
2024-05-09T21:30:18.923Z,16.00
2024-05-09T21:36:21.963Z,15.90
2024-05-09T21:39:19.275Z,15.80
2024-05-09T21:41:55.364Z,15.70
2024-05-09T21:44:30.291Z,15.70
2024-05-09T21:47:07.462Z,15.60
2024-05-09T21:49:37.201Z,15.50
2024-05-09T21:52:12.738Z,15.50
2024-05-09T21:54:48.635Z,15.50
2024-05-09T21:57:22.632Z,15.40
2024-05-09T22:00:35.345Z,15.30
2024-05-09T22:03:12.264Z,15.30
2024-05-09T22:05:55.643Z,15.20
2024-05-09T22:08:36.176Z,15.20
2024-05-09T22:11:15.358Z,15.20
2024-05-09T22:13:55.141Z,15.10
2024-05-09T22:16:29.982Z,15.10
2024-05-09T22:19:11.758Z,15.10
2024-05-09T22:21:42.086Z,15.10
2024-05-09T22:24:19.169Z,15.10
2024-05-09T22:27:23.296Z,15.10
2024-05-09T22:30:37.051Z,15.10
2024-05-09T22:33:12.548Z,15.10
2024-05-09T22:35:50.290Z,15.10
2024-05-09T22:38:33.106Z,15.00
2024-05-09T22:41:09.432Z,15.00
2024-05-09T22:43:51.238Z,14.90
2024-05-09T22:46:31.861Z,14.90
2024-05-09T22:49:09.516Z,14.80
2024-05-09T22:51:48.204Z,14.80
2024-05-09T22:54:20.525Z,14.80
2024-05-09T22:56:57.456Z,14.70
2024-05-09T22:59:34.660Z,14.60
2024-05-09T23:02:10.150Z,14.50
2024-05-09T23:04:43.567Z,14.50
2024-05-09T23:07:26.174Z,14.40
2024-05-09T23:10:01.538Z,14.40
2024-05-09T23:12:50.876Z,14.30
2024-05-09T23:15:38.473Z,14.30
2024-05-09T23:18:16.826Z,14.20
2024-05-09T23:20:57.475Z,14.20
2024-05-09T23:23:40.797Z,14.20
2024-05-09T23:26:17.071Z,14.20
2024-05-09T23:28:54.266Z,14.10
2024-05-09T23:31:40.915Z,14.10
2024-05-09T23:34:17.578Z,14.10
2024-05-09T23:36:58.919Z,14.00
2024-05-09T23:39:37.201Z,13.90
2024-05-09T23:42:13.273Z,13.90
2024-05-09T23:44:45.831Z,13.90
2024-05-09T23:48:14.040Z,13.90
2024-05-09T23:51:20.926Z,13.90
2024-05-09T23:53:56.540Z,13.90
2024-05-09T23:56:34.539Z,13.90
2024-05-09T23:59:05.636Z,13.80
